createdAt,value
2023-05-14T00:00:00.110Z,77
2023-05-14T00:05:00.102Z,77
2023-05-14T00:10:00.112Z,78
2023-05-14T00:15:00.131Z,78
2023-05-14T00:20:00.187Z,78
2023-05-14T00:25:00.159Z,78
2023-05-14T00:30:00.134Z,78
2023-05-14T00:35:00.114Z,78
2023-05-14T00:40:00.150Z,78
2023-05-14T00:45:00.120Z,79
2023-05-14T00:50:00.286Z,79
2023-05-14T00:55:00.176Z,79
2023-05-14T01:00:00.255Z,80
2023-05-14T01:05:00.155Z,80
2023-05-14T01:10:00.170Z,80
2023-05-14T01:15:00.102Z,80
2023-05-14T01:20:00.199Z,80
2023-05-14T01:25:00.121Z,80
2023-05-14T01:35:00.149Z,80
2023-05-14T01:40:00.152Z,80
2023-05-14T01:45:00.149Z,80
2023-05-14T01:50:00.124Z,81
2023-05-14T01:55:00.185Z,81
2023-05-14T02:00:00.130Z,81
2023-05-14T02:05:00.176Z,81
2023-05-14T02:10:00.141Z,81
2023-05-14T02:15:00.101Z,81
2023-05-14T02:20:00.170Z,81
2023-05-14T02:25:00.154Z,82
2023-05-14T02:30:00.196Z,82
2023-05-14T02:35:00.116Z,82
2023-05-14T02:40:00.138Z,82
2023-05-14T02:45:00.165Z,82
2023-05-14T02:50:00.131Z,82
2023-05-14T02:55:00.154Z,82
2023-05-14T03:00:00.161Z,82
2023-05-14T03:05:00.168Z,83
2023-05-14T03:10:00.189Z,83
2023-05-14T03:15:00.142Z,83
2023-05-14T03:20:00.159Z,83
2023-05-14T03:25:00.136Z,83
2023-05-14T03:30:00.178Z,83
2023-05-14T03:35:00.182Z,83
2023-05-14T03:40:00.104Z,83
2023-05-14T03:45:00.124Z,84
2023-05-14T03:50:00.180Z,84
2023-05-14T03:55:00.143Z,84
2023-05-14T04:00:00.193Z,84
2023-05-14T04:05:00.173Z,83
2023-05-14T04:10:02.615Z,83
2023-05-14T04:15:00.159Z,83
2023-05-14T04:20:00.173Z,83
2023-05-14T04:25:00.130Z,84
2023-05-14T04:30:00.257Z,83
2023-05-14T04:35:00.246Z,84
2023-05-14T04:40:00.209Z,84
2023-05-14T04:45:00.158Z,84
2023-05-14T04:50:00.183Z,84
2023-05-14T04:55:00.171Z,84
2023-05-14T05:00:00.105Z,84
2023-05-14T05:05:00.157Z,84
2023-05-14T05:10:00.169Z,83
2023-05-14T05:15:00.144Z,83
2023-05-14T05:20:00.138Z,83
2023-05-14T05:25:00.140Z,83
2023-05-14T05:30:00.142Z,83
2023-05-14T05:35:00.161Z,83
2023-05-14T05:40:00.122Z,83
2023-05-14T05:45:00.133Z,82
2023-05-14T05:50:00.178Z,82
2023-05-14T05:55:00.131Z,83
2023-05-14T06:00:00.149Z,82
2023-05-14T06:05:00.229Z,82
2023-05-14T06:10:00.168Z,82
2023-05-14T06:15:00.136Z,81
2023-05-14T06:20:00.181Z,81
2023-05-14T06:25:00.129Z,80
2023-05-14T06:30:00.159Z,80
2023-05-14T06:40:00.170Z,79
2023-05-14T06:45:00.135Z,79
2023-05-14T06:50:00.162Z,77
2023-05-14T06:55:00.111Z,75
2023-05-14T07:00:01.575Z,75
2023-05-14T07:05:00.260Z,74
2023-05-14T07:10:00.146Z,73
2023-05-14T07:15:00.104Z,73
2023-05-14T07:20:00.149Z,72
2023-05-14T07:25:00.138Z,71
2023-05-14T07:30:00.154Z,70
2023-05-14T07:35:00.118Z,70
2023-05-14T07:40:00.167Z,71
2023-05-14T07:45:00.156Z,69
2023-05-14T07:50:00.117Z,68
2023-05-14T07:55:00.125Z,67
2023-05-14T08:00:00.146Z,67
2023-05-14T08:05:00.143Z,67
2023-05-14T08:10:00.144Z,67
2023-05-14T08:15:00.198Z,67
2023-05-14T08:20:00.098Z,67
2023-05-14T08:25:00.133Z,67
2023-05-14T08:30:00.137Z,66
2023-05-14T08:35:00.148Z,66
2023-05-14T08:40:00.132Z,65
2023-05-14T08:45:00.159Z,66
2023-05-14T08:50:00.120Z,66
2023-05-14T08:55:00.136Z,65
2023-05-14T09:00:00.134Z,65
2023-05-14T09:05:00.190Z,66
2023-05-14T09:10:00.159Z,65
2023-05-14T09:15:00.137Z,65
2023-05-14T09:25:00.189Z,65
2023-05-14T09:30:00.142Z,65
2023-05-14T09:35:00.135Z,64
2023-05-14T09:40:00.126Z,64
2023-05-14T09:45:00.094Z,64
2023-05-14T09:50:00.124Z,64
2023-05-14T09:55:00.134Z,63
2023-05-14T10:00:00.154Z,63
2023-05-14T10:05:00.120Z,63
2023-05-14T10:10:00.141Z,63
2023-05-14T10:15:00.170Z,63
2023-05-14T10:20:00.123Z,63
2023-05-14T10:25:00.139Z,64
2023-05-14T10:30:00.145Z,63
2023-05-14T10:35:00.123Z,65
2023-05-14T10:40:00.180Z,65
2023-05-14T10:45:00.110Z,63
2023-05-14T10:50:00.102Z,63
2023-05-14T10:55:02.824Z,62
2023-05-14T11:00:00.165Z,62
2023-05-14T11:05:00.147Z,61
2023-05-14T11:10:00.136Z,60
2023-05-14T11:15:00.132Z,59
2023-05-14T11:20:00.162Z,60
2023-05-14T11:25:00.132Z,58
2023-05-14T11:30:00.150Z,58
2023-05-14T11:35:00.131Z,57
2023-05-14T11:40:00.188Z,57
2023-05-14T11:45:00.174Z,57
2023-05-14T11:50:00.145Z,57
2023-05-14T11:55:00.180Z,56
2023-05-14T12:00:00.149Z,56
2023-05-14T12:05:00.112Z,56
2023-05-14T12:10:00.154Z,55
2023-05-14T12:15:00.149Z,55
2023-05-14T12:20:00.167Z,55
2023-05-14T12:25:00.245Z,55
2023-05-14T12:30:09.147Z,54
2023-05-14T12:35:00.144Z,53
2023-05-14T12:40:00.155Z,53
2023-05-14T12:45:00.148Z,54
2023-05-14T12:50:00.124Z,52
2023-05-14T12:55:00.136Z,52
2023-05-14T13:00:00.141Z,53
2023-05-14T13:05:00.133Z,54
2023-05-14T13:10:00.232Z,54
2023-05-14T13:15:00.107Z,54
2023-05-14T13:20:00.151Z,51
2023-05-14T13:25:00.129Z,52
2023-05-14T13:30:00.105Z,51
2023-05-14T13:35:00.120Z,51
2023-05-14T13:40:00.154Z,51
2023-05-14T13:45:00.155Z,52
2023-05-14T13:50:00.189Z,50
2023-05-14T13:55:00.220Z,51
2023-05-14T14:00:00.147Z,50
2023-05-14T14:05:00.235Z,50
2023-05-14T14:10:00.130Z,50
2023-05-14T14:15:00.160Z,50
2023-05-14T14:20:00.147Z,50
2023-05-14T14:25:00.143Z,49
2023-05-14T14:30:00.137Z,49
2023-05-14T14:35:00.110Z,49
2023-05-14T14:40:00.130Z,50
2023-05-14T14:45:00.174Z,49
2023-05-14T14:50:00.190Z,48
2023-05-14T14:55:00.164Z,48
2023-05-14T15:00:02.161Z,47
2023-05-14T15:05:00.143Z,47
2023-05-14T15:10:00.242Z,47
2023-05-14T15:15:00.118Z,47
2023-05-14T15:20:00.152Z,48
2023-05-14T15:25:00.157Z,47
2023-05-14T15:30:00.135Z,46
2023-05-14T15:35:00.161Z,46
2023-05-14T15:40:00.132Z,47
2023-05-14T15:45:00.119Z,48
2023-05-14T15:50:00.162Z,48
2023-05-14T15:55:00.173Z,49
2023-05-14T16:00:00.123Z,50
2023-05-14T16:05:00.131Z,49
2023-05-14T16:10:00.161Z,50
2023-05-14T16:15:00.128Z,50
2023-05-14T16:20:00.194Z,50
2023-05-14T16:25:02.533Z,50
2023-05-14T16:30:00.179Z,50
2023-05-14T16:35:00.174Z,50
2023-05-14T16:40:00.111Z,50
2023-05-14T16:45:00.158Z,50
2023-05-14T16:50:00.146Z,51
2023-05-14T16:55:00.489Z,53
2023-05-14T17:00:00.190Z,57
2023-05-14T17:05:00.302Z,61
2023-05-14T17:10:00.275Z,61
2023-05-14T17:15:00.712Z,56
2023-05-14T17:20:00.267Z,56
2023-05-14T17:25:00.171Z,57
2023-05-14T17:30:00.101Z,58
2023-05-14T17:35:00.152Z,60
2023-05-14T17:40:00.161Z,60
2023-05-14T17:45:00.130Z,59
2023-05-14T17:50:00.094Z,59
2023-05-14T17:55:00.189Z,61
2023-05-14T18:00:00.126Z,63
2023-05-14T18:05:00.150Z,63
2023-05-14T18:10:00.154Z,62
2023-05-14T18:15:00.140Z,61
2023-05-14T18:20:00.161Z,59
2023-05-14T18:25:00.162Z,59
2023-05-14T18:30:00.163Z,59
2023-05-14T18:35:00.151Z,59
2023-05-14T18:40:00.177Z,60
2023-05-14T18:45:00.153Z,60
2023-05-14T18:50:00.165Z,59
2023-05-14T18:55:00.154Z,59
2023-05-14T19:00:00.150Z,60
2023-05-14T19:05:00.165Z,61
2023-05-14T19:10:00.192Z,61
2023-05-14T19:15:00.155Z,62
2023-05-14T19:20:00.130Z,63
2023-05-14T19:25:00.260Z,63
2023-05-14T19:30:00.172Z,64
2023-05-14T19:35:00.145Z,64
2023-05-14T19:40:00.163Z,65
2023-05-14T19:45:00.142Z,65
2023-05-14T19:50:00.141Z,66
2023-05-14T19:55:00.144Z,66
2023-05-14T20:00:00.140Z,67
2023-05-14T20:05:00.152Z,67
2023-05-14T20:10:00.157Z,67
2023-05-14T20:15:00.152Z,67
2023-05-14T20:20:00.134Z,68
2023-05-14T20:25:00.149Z,68
2023-05-14T20:30:00.119Z,68
2023-05-14T20:35:00.130Z,68
2023-05-14T20:40:00.201Z,67
2023-05-14T20:45:00.115Z,67
2023-05-14T20:50:00.119Z,67
2023-05-14T20:55:02.120Z,68
2023-05-14T21:00:00.134Z,68
2023-05-14T21:05:00.196Z,68
2023-05-14T21:10:00.163Z,68
2023-05-14T21:15:00.139Z,69
2023-05-14T21:20:00.210Z,68
2023-05-14T21:25:00.145Z,68
2023-05-14T21:30:00.156Z,69
2023-05-14T21:35:00.171Z,69
2023-05-14T21:40:00.109Z,68
2023-05-14T21:45:00.112Z,69
2023-05-14T21:50:00.150Z,69
2023-05-14T21:55:00.119Z,69
2023-05-14T22:00:00.113Z,69
2023-05-14T22:05:00.166Z,69
2023-05-14T22:10:00.133Z,69
2023-05-14T22:15:00.109Z,70
2023-05-14T22:20:00.131Z,70
2023-05-14T22:25:00.150Z,71
2023-05-14T22:30:00.232Z,72
2023-05-14T22:35:00.152Z,72
2023-05-14T22:40:00.144Z,73
2023-05-14T22:45:00.123Z,73
2023-05-14T22:50:00.160Z,74
2023-05-14T22:55:00.163Z,75
2023-05-14T23:00:00.104Z,75
2023-05-14T23:05:00.121Z,75
2023-05-14T23:10:00.159Z,76
2023-05-14T23:15:00.130Z,76
2023-05-14T23:20:00.130Z,77
2023-05-14T23:25:00.138Z,77
2023-05-14T23:30:00.169Z,78
2023-05-14T23:35:00.157Z,78
2023-05-14T23:40:00.159Z,79
2023-05-14T23:45:00.166Z,80
2023-05-14T23:50:00.110Z,80
2023-05-14T23:55:00.177Z,81
